sensor_id;sensor_type;location;lat;lon;timestamp;pressure;altitude;pressure_sealevel;temperature;humidity
76866;BME280;66647;52.124;5.416;2024-03-23T00:56:23;101163.97;;;7.19;100.00
76866;BME280;66647;52.124;5.416;2024-03-23T00:59:58;101166.38;;;7.20;100.00
76866;BME280;66647;52.124;5.416;2024-03-23T01:15:29;101152.81;;;7.15;100.00
76866;BME280;66647;52.124;5.416;2024-03-23T01:18:04;101151.72;;;7.16;100.00
76866;BME280;66647;52.124;5.416;2024-03-23T01:37:38;101126.75;;;7.09;100.00
76866;BME280;66647;52.124;5.416;2024-03-23T01:40:07;101119.69;;;7.08;100.00
76866;BME280;66647;52.124;5.416;2024-03-23T01:42:42;101114.53;;;7.06;100.00
76866;BME280;66647;52.124;5.416;2024-03-23T01:45:09;101100.69;;;7.03;100.00
76866;BME280;66647;52.124;5.416;2024-03-23T01:48:07;101099.63;;;6.99;100.00
76866;BME280;66647;52.124;5.416;2024-03-23T01:57:34;101105.09;;;6.80;100.00
76866;BME280;66647;52.124;5.416;2024-03-23T02:00:16;101100.31;;;6.72;100.00
76866;BME280;66647;52.124;5.416;2024-03-23T02:02:45;101094.94;;;6.67;100.00
76866;BME280;66647;52.124;5.416;2024-03-23T02:05:26;101095.81;;;6.62;100.00
76866;BME280;66647;52.124;5.416;2024-03-23T02:11:23;101097.03;;;6.51;100.00
76866;BME280;66647;52.124;5.416;2024-03-23T02:13:54;101094.69;;;6.45;100.00
76866;BME280;66647;52.124;5.416;2024-03-23T02:20:31;101094.50;;;6.36;100.00
76866;BME280;66647;52.124;5.416;2024-03-23T02:23:00;101102.44;;;6.32;100.00
76866;BME280;66647;52.124;5.416;2024-03-23T02:25:28;101098.41;;;6.30;100.00
76866;BME280;66647;52.124;5.416;2024-03-23T02:27:54;101096.53;;;6.25;100.00
76866;BME280;66647;52.124;5.416;2024-03-23T02:37:11;101073.03;;;6.11;100.00
76866;BME280;66647;52.124;5.416;2024-03-23T02:49:04;101081.13;;;5.92;100.00
76866;BME280;66647;52.124;5.416;2024-03-23T02:52:15;101088.50;;;5.86;100.00
76866;BME280;66647;52.124;5.416;2024-03-23T02:54:41;101083.88;;;5.87;100.00
76866;BME280;66647;52.124;5.416;2024-03-23T02:57:10;101088.31;;;5.83;100.00
76866;BME280;66647;52.124;5.416;2024-03-23T02:59:36;101088.06;;;5.79;100.00
76866;BME280;66647;52.124;5.416;2024-03-23T03:02:05;101084.00;;;5.77;100.00
76866;BME280;66647;52.124;5.416;2024-03-23T03:04:33;101081.56;;;5.75;100.00
76866;BME280;66647;52.124;5.416;2024-03-23T03:07:02;101083.75;;;5.73;100.00
76866;BME280;66647;52.124;5.416;2024-03-23T03:09:30;101075.66;;;5.68;100.00
76866;BME280;66647;52.124;5.416;2024-03-23T03:11:58;101083.28;;;5.66;100.00
76866;BME280;66647;52.124;5.416;2024-03-23T03:14:53;101083.84;;;5.63;100.00
76866;BME280;66647;52.124;5.416;2024-03-23T03:17:44;101080.59;;;5.61;100.00
76866;BME280;66647;52.124;5.416;2024-03-23T03:20:10;101081.19;;;5.58;100.00
76866;BME280;66647;52.124;5.416;2024-03-23T03:26:04;101074.22;;;5.47;100.00
76866;BME280;66647;52.124;5.416;2024-03-23T03:28:51;101078.84;;;5.46;100.00
76866;BME280;66647;52.124;5.416;2024-03-23T03:31:42;101077.53;;;5.44;100.00
76866;BME280;66647;52.124;5.416;2024-03-23T03:34:08;101074.84;;;5.38;100.00
76866;BME280;66647;52.124;5.416;2024-03-23T03:36:59;101072.69;;;5.35;100.00
76866;BME280;66647;52.124;5.416;2024-03-23T03:43:20;101067.56;;;5.29;100.00
76866;BME280;66647;52.124;5.416;2024-03-23T03:45:53;101064.59;;;5.25;100.00
76866;BME280;66647;52.124;5.416;2024-03-23T03:48:20;101057.03;;;5.22;100.00
76866;BME280;66647;52.124;5.416;2024-03-23T03:50:46;101049.97;;;5.21;100.00
76866;BME280;66647;52.124;5.416;2024-03-23T03:53:12;101051.66;;;5.17;100.00
76866;BME280;66647;52.124;5.416;2024-03-23T03:55:38;101055.75;;;5.15;100.00
76866;BME280;66647;52.124;5.416;2024-03-23T03:58:27;101056.31;;;5.12;100.00
76866;BME280;66647;52.124;5.416;2024-03-23T04:00:53;101053.88;;;5.10;100.00
76866;BME280;66647;52.124;5.416;2024-03-23T04:03:44;101059.06;;;5.06;100.00
76866;BME280;66647;52.124;5.416;2024-03-23T04:06:20;101053.38;;;5.03;100.00
76866;BME280;66647;52.124;5.416;2024-03-23T04:09:11;101054.75;;;5.00;100.00
76866;BME280;66647;52.124;5.416;2024-03-23T04:11:37;101047.69;;;4.99;100.00
76866;BME280;66647;52.124;5.416;2024-03-23T04:14:03;101048.25;;;4.96;100.00
76866;BME280;66647;52.124;5.416;2024-03-23T04:17:03;101040.97;;;4.92;100.00
76866;BME280;66647;52.124;5.416;2024-03-23T04:19:30;101035.00;;;4.90;100.00
76866;BME280;66647;52.124;5.416;2024-03-23T04:22:05;101035.59;;;4.87;100.00
76866;BME280;66647;52.124;5.416;2024-03-23T04:28:17;101034.81;;;4.81;100.00
76866;BME280;66647;52.124;5.416;2024-03-23T04:30:49;101041.63;;;4.79;100.00
76866;BME280;66647;52.124;5.416;2024-03-23T04:33:35;101037.84;;;4.75;100.00
76866;BME280;66647;52.124;5.416;2024-03-23T04:40:06;101039.50;;;4.70;100.00
76866;BME280;66647;52.124;5.416;2024-03-23T04:42:33;101034.06;;;4.70;100.00
76866;BME280;66647;52.124;5.416;2024-03-23T04:45:09;101039.78;;;4.69;100.00
76866;BME280;66647;52.124;5.416;2024-03-23T04:47:40;101031.63;;;4.69;100.00
76866;BME280;66647;52.124;5.416;2024-03-23T04:50:12;101045.47;;;4.67;100.00
76866;BME280;66647;52.124;5.416;2024-03-23T04:52:37;101034.09;;;4.65;100.00
76866;BME280;66647;52.124;5.416;2024-03-23T04:55:06;101037.63;;;4.66;100.00
76866;BME280;66647;52.124;5.416;2024-03-23T04:57:57;101030.56;;;4.65;100.00
76866;BME280;66647;52.124;5.416;2024-03-23T05:00:23;101034.13;;;4.60;100.00
76866;BME280;66647;52.124;5.416;2024-03-23T05:06:07;101038.53;;;4.51;100.00
76866;BME280;66647;52.124;5.416;2024-03-23T05:08:51;101038.56;;;4.46;100.00
76866;BME280;66647;52.124;5.416;2024-03-23T05:11:47;101036.41;;;4.43;100.00
76866;BME280;66647;52.124;5.416;2024-03-23T05:18:45;101037.53;;;4.32;100.00
76866;BME280;66647;52.124;5.416;2024-03-23T05:21:15;101042.16;;;4.31;100.00
76866;BME280;66647;52.124;5.416;2024-03-23T05:24:01;101038.09;;;4.29;100.00
76866;BME280;66647;52.124;5.416;2024-03-23T05:26:28;101037.84;;;4.25;100.00
76866;BME280;66647;52.124;5.416;2024-03-23T05:29:03;101041.91;;;4.23;100.00
76866;BME280;66647;52.124;5.416;2024-03-23T05:31:49;101043.84;;;4.22;100.00
76866;BME280;66647;52.124;5.416;2024-03-23T05:34:24;101041.41;;;4.21;100.00
76866;BME280;66647;52.124;5.416;2024-03-23T05:40:21;101045.50;;;4.18;100.00
76866;BME280;66647;52.124;5.416;2024-03-23T05:43:03;101049.56;;;4.21;100.00
76866;BME280;66647;52.124;5.416;2024-03-23T05:48:45;101045.16;;;4.30;100.00
76866;BME280;66647;52.124;5.416;2024-03-23T05:51:18;101046.19;;;4.39;100.00
76866;BME280;66647;52.124;5.416;2024-03-23T05:53:44;101033.41;;;4.45;100.00
76866;BME280;66647;52.124;5.416;2024-03-23T05:59:44;101036.34;;;4.53;100.00
76866;BME280;66647;52.124;5.416;2024-03-23T06:02:09;101030.94;;;4.53;100.00
76866;BME280;66647;52.124;5.416;2024-03-23T06:08:17;101034.16;;;4.55;100.00
76866;BME280;66647;52.124;5.416;2024-03-23T06:11:05;101038.25;;;4.53;100.00
76866;BME280;66647;52.124;5.416;2024-03-23T06:13:35;101035.81;;;4.51;100.00
76866;BME280;66647;52.124;5.416;2024-03-23T06:16:01;101037.19;;;4.49;100.00
76866;BME280;66647;52.124;5.416;2024-03-23T06:18:30;101035.84;;;4.46;100.00
76866;BME280;66647;52.124;5.416;2024-03-23T06:22:07;101035.31;;;4.44;100.00
76866;BME280;66647;52.124;5.416;2024-03-23T06:24:36;101032.06;;;4.42;100.00
76866;BME280;66647;52.124;5.416;2024-03-23T06:35:36;101021.75;;;4.83;100.00
76866;BME280;66647;52.124;5.416;2024-03-23T06:50:06;101011.03;;;4.97;100.00
76866;BME280;66647;52.124;5.416;2024-03-23T06:52:32;101012.09;;;5.01;100.00
76866;BME280;66647;52.124;5.416;2024-03-23T07:25:24;101013.59;;;6.18;100.00
76866;BME280;66647;52.124;5.416;2024-03-23T07:27:53;101012.34;;;6.29;100.00
76866;BME280;66647;52.124;5.416;2024-03-23T07:30:18;101008.69;;;6.38;100.00
76866;BME280;66647;52.124;5.416;2024-03-23T07:32:45;101022.06;;;6.54;100.00
76866;BME280;66647;52.124;5.416;2024-03-23T07:35:11;101016.94;;;6.71;100.00
76866;BME280;66647;52.124;5.416;2024-03-23T07:37:36;101016.69;;;6.86;100.00
76866;BME280;66647;52.124;5.416;2024-03-23T07:40:02;101008.88;;;6.98;100.00
76866;BME280;66647;52.124;5.416;2024-03-23T07:42:28;101014.25;;;7.17;100.00
76866;BME280;66647;52.124;5.416;2024-03-23T07:44:54;101021.81;;;7.53;100.00
76866;BME280;66647;52.124;5.416;2024-03-23T07:47:22;101013.41;;;7.49;100.00
76866;BME280;66647;52.124;5.416;2024-03-23T07:49:48;101002.94;;;7.56;100.00
76866;BME280;66647;52.124;5.416;2024-03-23T07:52:14;101017.00;;;7.63;100.00
76866;BME280;66647;52.124;5.416;2024-03-23T07:54:39;101008.00;;;8.04;100.00
76866;BME280;66647;52.124;5.416;2024-03-23T07:57:05;101016.97;;;8.18;100.00
76866;BME280;66647;52.124;5.416;2024-03-23T07:59:32;101018.38;;;8.16;100.00
76866;BME280;66647;52.124;5.416;2024-03-23T08:02:00;101009.88;;;8.31;100.00
76866;BME280;66647;52.124;5.416;2024-03-23T08:04:29;101013.28;;;8.50;99.72
76866;BME280;66647;52.124;5.416;2024-03-23T08:06:55;101003.94;;;8.65;96.53
76866;BME280;66647;52.124;5.416;2024-03-23T08:09:21;101012.38;;;8.55;94.69
76866;BME280;66647;52.124;5.416;2024-03-23T08:11:48;101012.22;;;8.73;95.80
76866;BME280;66647;52.124;5.416;2024-03-23T08:14:13;101000.28;;;9.45;93.03
76866;BME280;66647;52.124;5.416;2024-03-23T08:16:39;101005.91;;;9.71;90.52
76866;BME280;66647;52.124;5.416;2024-03-23T08:19:04;100991.09;;;10.20;88.00
76866;BME280;66647;52.124;5.416;2024-03-23T08:21:30;101004.69;;;10.68;86.16
76866;BME280;66647;52.124;5.416;2024-03-23T08:23:59;101004.88;;;9.98;82.26
76866;BME280;66647;52.124;5.416;2024-03-23T08:26:33;101005.44;;;9.38;86.62
76866;BME280;66647;52.124;5.416;2024-03-23T08:28:59;101015.28;;;9.48;87.81
76866;BME280;66647;52.124;5.416;2024-03-23T08:31:24;101020.25;;;9.46;86.95
76866;BME280;66647;52.124;5.416;2024-03-23T08:33:51;101011.56;;;10.23;86.81
76866;BME280;66647;52.124;5.416;2024-03-23T08:36:16;101009.53;;;11.61;80.92
76866;BME280;66647;52.124;5.416;2024-03-23T08:38:42;101010.44;;;11.10;78.67
76866;BME280;66647;52.124;5.416;2024-03-23T08:41:09;101000.94;;;10.47;76.76
76866;BME280;66647;52.124;5.416;2024-03-23T08:43:37;101007.44;;;9.94;80.65
76866;BME280;66647;52.124;5.416;2024-03-23T08:46:06;101011.44;;;10.88;83.68
76866;BME280;66647;52.124;5.416;2024-03-23T08:48:34;100995.34;;;11.42;78.28
76866;BME280;66647;52.124;5.416;2024-03-23T08:51:07;101005.69;;;12.00;74.78
76866;BME280;66647;52.124;5.416;2024-03-23T08:53:34;101009.56;;;11.99;74.24
76866;BME280;66647;52.124;5.416;2024-03-23T08:56:01;101003.56;;;12.27;73.03
76866;BME280;66647;52.124;5.416;2024-03-23T08:58:28;100995.25;;;12.98;71.46
76866;BME280;66647;52.124;5.416;2024-03-23T09:00:55;101003.63;;;13.34;69.18
76866;BME280;66647;52.124;5.416;2024-03-23T09:03:24;100992.09;;;14.02;64.72
76866;BME280;66647;52.124;5.416;2024-03-23T09:05:51;100992.44;;;14.00;64.58
76866;BME280;66647;52.124;5.416;2024-03-23T09:08:18;100985.44;;;14.15;64.40
76866;BME280;66647;52.124;5.416;2024-03-23T09:10:44;100986.25;;;14.03;62.19
76866;BME280;66647;52.124;5.416;2024-03-23T09:13:11;100996.78;;;14.38;63.34
76866;BME280;66647;52.124;5.416;2024-03-23T09:15:44;100988.22;;;15.23;60.52
76866;BME280;66647;52.124;5.416;2024-03-23T09:18:10;100991.75;;;14.28;61.08
76866;BME280;66647;52.124;5.416;2024-03-23T09:20:36;101008.03;;;13.15;63.91
76866;BME280;66647;52.124;5.416;2024-03-23T09:23:02;101003.16;;;12.37;69.58
76866;BME280;66647;52.124;5.416;2024-03-23T09:25:28;101007.91;;;11.60;72.29
76866;BME280;66647;52.124;5.416;2024-03-23T09:27:55;101008.22;;;10.77;76.23
76866;BME280;66647;52.124;5.416;2024-03-23T09:30:21;100997.88;;;10.40;78.04
76866;BME280;66647;52.124;5.416;2024-03-23T09:32:48;100994.63;;;10.21;80.02
76866;BME280;66647;52.124;5.416;2024-03-23T09:35:15;100999.25;;;10.03;79.78
76866;BME280;66647;52.124;5.416;2024-03-23T09:37:41;100999.34;;;9.89;80.47
76866;BME280;66647;52.124;5.416;2024-03-23T09:40:10;100997.25;;;9.86;83.09
76866;BME280;66647;52.124;5.416;2024-03-23T09:42:37;101001.00;;;9.99;82.64
76866;BME280;66647;52.124;5.416;2024-03-23T09:45:05;101002.88;;;9.81;81.32
76866;BME280;66647;52.124;5.416;2024-03-23T09:47:33;101018.66;;;9.44;83.23
76866;BME280;66647;52.124;5.416;2024-03-23T09:50:00;101016.59;;;8.97;83.12
76866;BME280;66647;52.124;5.416;2024-03-23T09:52:26;101010.72;;;8.67;84.49
76866;BME280;66647;52.124;5.416;2024-03-23T09:54:51;101006.31;;;8.58;85.57
76866;BME280;66647;52.124;5.416;2024-03-23T09:57:17;101004.25;;;8.63;87.75
76866;BME280;66647;52.124;5.416;2024-03-23T09:59:43;100997.91;;;9.21;88.23
76866;BME280;66647;52.124;5.416;2024-03-23T10:02:09;100991.66;;;10.08;87.38
76866;BME280;66647;52.124;5.416;2024-03-23T10:05:33;100983.72;;;11.45;86.71
76866;BME280;66647;52.124;5.416;2024-03-23T10:08:25;100977.56;;;12.45;83.18
76866;BME280;66647;52.124;5.416;2024-03-23T10:10:54;100977.00;;;13.05;79.55
76866;BME280;66647;52.124;5.416;2024-03-23T10:13:47;100971.16;;;13.28;73.42
76866;BME280;66647;52.124;5.416;2024-03-23T10:16:38;100969.34;;;13.68;72.64
76866;BME280;66647;52.124;5.416;2024-03-23T10:19:04;100980.63;;;14.00;67.93
76866;BME280;66647;52.124;5.416;2024-03-23T10:21:52;100967.13;;;14.35;66.60
76866;BME280;66647;52.124;5.416;2024-03-23T10:24:23;100975.63;;;14.30;61.46
76866;BME280;66647;52.124;5.416;2024-03-23T10:26:56;100980.69;;;13.42;64.28
76866;BME280;66647;52.124;5.416;2024-03-23T10:29:22;100973.66;;;13.00;67.49
76866;BME280;66647;52.124;5.416;2024-03-23T10:31:48;100987.47;;;13.45;63.89
76866;BME280;66647;52.124;5.416;2024-03-23T10:34:25;100981.31;;;13.85;65.45
76866;BME280;66647;52.124;5.416;2024-03-23T10:36:53;100969.88;;;14.35;63.21
76866;BME280;66647;52.124;5.416;2024-03-23T10:39:20;100959.34;;;14.65;63.07
76866;BME280;66647;52.124;5.416;2024-03-23T10:42:01;100963.00;;;14.81;58.17
76866;BME280;66647;52.124;5.416;2024-03-23T10:44:28;100968.03;;;15.07;59.62
76866;BME280;66647;52.124;5.416;2024-03-23T10:46:55;100968.59;;;15.28;56.26
76866;BME280;66647;52.124;5.416;2024-03-23T10:49:35;100959.81;;;14.95;57.36
76866;BME280;66647;52.124;5.416;2024-03-23T10:52:04;100981.22;;;13.93;58.06
76866;BME280;66647;52.124;5.416;2024-03-23T10:54:41;101001.53;;;13.19;60.51
76866;BME280;66647;52.124;5.416;2024-03-23T10:57:11;101009.34;;;12.34;69.58
76866;BME280;66647;52.124;5.416;2024-03-23T10:59:40;101003.81;;;11.75;72.87
76866;BME280;66647;52.124;5.416;2024-03-23T11:02:06;101012.16;;;11.49;74.59
76866;BME280;66647;52.124;5.416;2024-03-23T11:04:37;100994.78;;;11.19;73.62
76866;BME280;66647;52.124;5.416;2024-03-23T11:09:52;100994.38;;;12.23;74.93
76866;BME280;66647;52.124;5.416;2024-03-23T11:14:51;100968.47;;;13.89;70.91
76866;BME280;66647;52.124;5.416;2024-03-23T11:17:18;100968.59;;;14.57;71.13
76866;BME280;66647;52.124;5.416;2024-03-23T11:20:00;100959.66;;;15.03;64.66
76866;BME280;66647;52.124;5.416;2024-03-23T11:22:52;100966.13;;;14.27;62.29
76866;BME280;66647;52.124;5.416;2024-03-23T11:25:18;100973.13;;;13.39;63.26
76866;BME280;66647;52.124;5.416;2024-03-23T11:27:52;100977.72;;;12.82;64.43
76866;BME280;66647;52.124;5.416;2024-03-23T11:30:28;100982.84;;;12.50;65.27
76866;BME280;66647;52.124;5.416;2024-03-23T11:32:56;100975.41;;;12.51;67.11
76866;BME280;66647;52.124;5.416;2024-03-23T11:35:47;100969.16;;;13.16;67.27
76866;BME280;66647;52.124;5.416;2024-03-23T11:38:17;100955.47;;;13.89;65.39
76866;BME280;66647;52.124;5.416;2024-03-23T11:40:47;100941.34;;;13.91;60.18
76866;BME280;66647;52.124;5.416;2024-03-23T11:43:20;100958.94;;;13.86;61.75
76866;BME280;66647;52.124;5.416;2024-03-23T11:45:56;100957.50;;;14.17;59.12
76866;BME280;66647;52.124;5.416;2024-03-23T11:48:23;100942.97;;;14.56;61.46
76866;BME280;66647;52.124;5.416;2024-03-23T11:50:53;100929.13;;;15.12;55.81
76866;BME280;66647;52.124;5.416;2024-03-23T11:53:44;100953.41;;;14.91;56.45
76866;BME280;66647;52.124;5.416;2024-03-23T11:56:10;100936.59;;;14.28;54.41
76866;BME280;66647;52.124;5.416;2024-03-23T11:58:42;100960.31;;;13.56;57.05
76866;BME280;66647;52.124;5.416;2024-03-23T12:01:12;100948.88;;;12.88;56.81
76866;BME280;66647;52.124;5.416;2024-03-23T12:03:53;100953.28;;;12.47;59.96
76866;BME280;66647;52.124;5.416;2024-03-23T12:06:22;100949.09;;;12.41;61.31
76866;BME280;66647;52.124;5.416;2024-03-23T12:08:47;100940.91;;;12.74;59.46
76866;BME280;66647;52.124;5.416;2024-03-23T12:11:15;100952.41;;;12.55;60.60
76866;BME280;66647;52.124;5.416;2024-03-23T12:13:42;100955.16;;;12.34;61.43
76866;BME280;66647;52.124;5.416;2024-03-23T12:16:10;100935.69;;;11.98;62.03
76866;BME280;66647;52.124;5.416;2024-03-23T12:18:45;100951.22;;;11.56;61.23
76866;BME280;66647;52.124;5.416;2024-03-23T12:21:16;100942.88;;;11.43;62.62
76866;BME280;66647;52.124;5.416;2024-03-23T12:23:43;100931.19;;;11.93;63.05
76866;BME280;66647;52.124;5.416;2024-03-23T12:26:11;100938.38;;;12.48;62.66
76866;BME280;66647;52.124;5.416;2024-03-23T12:28:37;100918.38;;;12.93;62.56
76866;BME280;66647;52.124;5.416;2024-03-23T12:31:03;100917.25;;;13.06;61.38
76866;BME280;66647;52.124;5.416;2024-03-23T12:33:29;100917.19;;;12.82;59.13
76866;BME280;66647;52.124;5.416;2024-03-23T12:35:57;100920.66;;;12.58;59.49
76866;BME280;66647;52.124;5.416;2024-03-23T12:38:23;100912.75;;;12.56;62.07
76866;BME280;66647;52.124;5.416;2024-03-23T12:40:49;100928.44;;;12.56;61.05
76866;BME280;66647;52.124;5.416;2024-03-23T12:43:16;100920.41;;;12.51;61.27
76866;BME280;66647;52.124;5.416;2024-03-23T12:45:46;100916.41;;;12.27;60.29
76866;BME280;66647;52.124;5.416;2024-03-23T12:48:11;100924.41;;;12.53;58.53
76866;BME280;66647;52.124;5.416;2024-03-23T12:50:37;100925.38;;;12.57;58.55
76866;BME280;66647;52.124;5.416;2024-03-23T12:53:03;100924.03;;;12.22;55.79
76866;BME280;66647;52.124;5.416;2024-03-23T12:55:29;100919.25;;;11.89;60.07
76866;BME280;66647;52.124;5.416;2024-03-23T12:57:54;100917.44;;;12.14;63.62
76866;BME280;66647;52.124;5.416;2024-03-23T13:00:20;100921.19;;;12.51;64.76
76866;BME280;66647;52.124;5.416;2024-03-23T13:02:45;100913.69;;;12.60;59.70
76866;BME280;66647;52.124;5.416;2024-03-23T13:05:20;100922.91;;;12.76;62.01
76866;BME280;66647;52.124;5.416;2024-03-23T13:07:46;100915.13;;;12.78;62.09
76866;BME280;66647;52.124;5.416;2024-03-23T13:10:15;100905.88;;;12.29;58.77
76866;BME280;66647;52.124;5.416;2024-03-23T13:12:46;100918.38;;;11.68;60.73
76866;BME280;66647;52.124;5.416;2024-03-23T13:23:35;100914.69;;;11.64;59.42
76866;BME280;66647;52.124;5.416;2024-03-23T13:26:09;100939.88;;;11.28;59.22
76866;BME280;66647;52.124;5.416;2024-03-23T13:28:35;100953.88;;;10.62;62.49
76866;BME280;66647;52.124;5.416;2024-03-23T13:31:13;100974.09;;;10.09;64.07
76866;BME280;66647;52.124;5.416;2024-03-23T13:33:38;100963.72;;;9.72;65.71
76866;BME280;66647;52.124;5.416;2024-03-23T13:36:11;100946.78;;;9.70;68.36
76866;BME280;66647;52.124;5.416;2024-03-23T13:38:37;100935.72;;;9.92;68.39
76866;BME280;66647;52.124;5.416;2024-03-23T13:41:08;100937.53;;;10.05;67.36
76866;BME280;66647;52.124;5.416;2024-03-23T13:46:54;100922.53;;;10.81;64.73
76866;BME280;66647;52.124;5.416;2024-03-23T13:50:01;100912.75;;;11.18;63.71
76866;BME280;66647;52.124;5.416;2024-03-23T13:58:35;100911.72;;;10.84;63.80
76866;BME280;66647;52.124;5.416;2024-03-23T14:01:39;100917.41;;;10.70;63.86
76866;BME280;66647;52.124;5.416;2024-03-23T14:04:15;100901.59;;;10.59;62.66
76866;BME280;66647;52.124;5.416;2024-03-23T14:06:46;100911.13;;;10.70;62.84
76866;BME280;66647;52.124;5.416;2024-03-23T14:09:12;100903.97;;;10.95;65.32
76866;BME280;66647;52.124;5.416;2024-03-23T14:11:39;100897.72;;;11.24;64.71
76866;BME280;66647;52.124;5.416;2024-03-23T14:14:07;100889.25;;;11.37;64.26
76866;BME280;66647;52.124;5.416;2024-03-23T14:16:33;100886.19;;;11.39;63.20
76866;BME280;66647;52.124;5.416;2024-03-23T14:19:05;100886.66;;;11.41;64.69
76866;BME280;66647;52.124;5.416;2024-03-23T14:21:31;100865.66;;;11.45;63.46
76866;BME280;66647;52.124;5.416;2024-03-23T14:24:00;100881.66;;;11.43;62.36
76866;BME280;66647;52.124;5.416;2024-03-23T14:26:27;100873.53;;;11.17;63.12
76866;BME280;66647;52.124;5.416;2024-03-23T14:28:52;100893.31;;;10.93;66.79
76866;BME280;66647;52.124;5.416;2024-03-23T14:31:18;100879.63;;;10.76;69.22
76866;BME280;66647;52.124;5.416;2024-03-23T14:33:44;100872.97;;;11.03;70.23
76866;BME280;66647;52.124;5.416;2024-03-23T14:36:16;100881.13;;;11.11;68.79
76866;BME280;66647;52.124;5.416;2024-03-23T14:38:47;100873.63;;;11.00;68.67
76866;BME280;66647;52.124;5.416;2024-03-23T14:41:13;100868.63;;;10.93;69.27
76866;BME280;66647;52.124;5.416;2024-03-23T14:43:38;100861.88;;;10.82;68.62
76866;BME280;66647;52.124;5.416;2024-03-23T14:48:34;100851.09;;;11.15;67.36
76866;BME280;66647;52.124;5.416;2024-03-23T14:51:00;100862.06;;;11.24;67.54
76866;BME280;66647;52.124;5.416;2024-03-23T14:53:27;100845.78;;;11.10;64.35
76866;BME280;66647;52.124;5.416;2024-03-23T14:56:04;100861.72;;;10.78;62.79
76866;BME280;66647;52.124;5.416;2024-03-23T14:58:30;100869.50;;;10.59;63.14
76866;BME280;66647;52.124;5.416;2024-03-23T15:01:00;100871.81;;;10.31;63.10
76866;BME280;66647;52.124;5.416;2024-03-23T15:03:38;100874.88;;;10.30;67.00
76866;BME280;66647;52.124;5.416;2024-03-23T15:06:13;100867.91;;;10.50;67.10
76866;BME280;66647;52.124;5.416;2024-03-23T15:08:38;100854.97;;;10.67;66.67
76866;BME280;66647;52.124;5.416;2024-03-23T15:11:05;100853.16;;;10.80;67.17
76866;BME280;66647;52.124;5.416;2024-03-23T15:13:35;100852.84;;;10.82;66.53
76866;BME280;66647;52.124;5.416;2024-03-23T15:16:01;100852.03;;;10.81;67.01
76866;BME280;66647;52.124;5.416;2024-03-23T15:18:32;100858.84;;;10.66;68.06
76866;BME280;66647;52.124;5.416;2024-03-23T15:21:04;100855.31;;;10.49;66.13
76866;BME280;66647;52.124;5.416;2024-03-23T15:23:35;100858.41;;;10.38;66.27
76866;BME280;66647;52.124;5.416;2024-03-23T15:26:04;100842.13;;;10.25;66.30
76866;BME280;66647;52.124;5.416;2024-03-23T15:28:31;100848.75;;;10.24;65.52
76866;BME280;66647;52.124;5.416;2024-03-23T15:31:15;100846.81;;;10.24;65.22
76866;BME280;66647;52.124;5.416;2024-03-23T15:33:41;100849.03;;;10.14;64.36
76866;BME280;66647;52.124;5.416;2024-03-23T15:36:06;100843.56;;;10.05;65.29
76866;BME280;66647;52.124;5.416;2024-03-23T15:38:32;100860.00;;;9.96;65.69
76866;BME280;66647;52.124;5.416;2024-03-23T15:40:58;100850.00;;;9.92;65.42
76866;BME280;66647;52.124;5.416;2024-03-23T15:43:25;100853.53;;;9.84;65.83
76866;BME280;66647;52.124;5.416;2024-03-23T15:46:02;100849.00;;;9.79;66.70
76866;BME280;66647;52.124;5.416;2024-03-23T15:48:28;100856.09;;;9.80;67.64
76866;BME280;66647;52.124;5.416;2024-03-23T15:50:58;100844.50;;;9.66;70.38
76866;BME280;66647;52.124;5.416;2024-03-23T15:53:25;100839.81;;;9.58;73.14
76866;BME280;66647;52.124;5.416;2024-03-23T15:56:03;100837.41;;;9.65;73.99
76866;BME280;66647;52.124;5.416;2024-03-23T15:58:31;100836.44;;;9.78;73.54
76866;BME280;66647;52.124;5.416;2024-03-23T16:01:07;100834.34;;;9.75;73.31
76866;BME280;66647;52.124;5.416;2024-03-23T16:03:37;100827.94;;;9.71;71.76
76866;BME280;66647;52.124;5.416;2024-03-23T16:06:04;100814.22;;;9.62;72.57
76866;BME280;66647;52.124;5.416;2024-03-23T16:08:30;100817.94;;;9.66;72.91
76866;BME280;66647;52.124;5.416;2024-03-23T16:11:14;100821.97;;;9.69;70.95
76866;BME280;66647;52.124;5.416;2024-03-23T16:13:40;100814.38;;;9.66;71.60
76866;BME280;66647;52.124;5.416;2024-03-23T16:16:07;100815.00;;;9.54;71.67
76866;BME280;66647;52.124;5.416;2024-03-23T16:18:33;100818.53;;;9.55;72.20
76866;BME280;66647;52.124;5.416;2024-03-23T16:21:00;100811.31;;;9.59;72.24
76866;BME280;66647;52.124;5.416;2024-03-23T16:23:27;100805.97;;;9.54;72.32
76866;BME280;66647;52.124;5.416;2024-03-23T16:25:55;100818.19;;;9.48;72.83
76866;BME280;66647;52.124;5.416;2024-03-23T16:28:25;100813.53;;;9.39;73.21
76866;BME280;66647;52.124;5.416;2024-03-23T16:33:27;100818.34;;;9.34;72.33
76866;BME280;66647;52.124;5.416;2024-03-23T16:35:57;100826.69;;;9.29;73.71
76866;BME280;66647;52.124;5.416;2024-03-23T16:38:27;100843.69;;;9.08;73.60
76866;BME280;66647;52.124;5.416;2024-03-23T16:40:57;100865.25;;;8.79;78.33
76866;BME280;66647;52.124;5.416;2024-03-23T16:43:24;100837.28;;;8.51;81.91
76866;BME280;66647;52.124;5.416;2024-03-23T16:46:04;100840.91;;;8.38;85.14
76866;BME280;66647;52.124;5.416;2024-03-23T16:48:32;100834.22;;;8.30;85.27
76866;BME280;66647;52.124;5.416;2024-03-23T16:50:59;100833.53;;;8.25;86.28
76866;BME280;66647;52.124;5.416;2024-03-23T16:53:26;100841.13;;;8.28;87.24
76866;BME280;66647;52.124;5.416;2024-03-23T16:56:02;100844.19;;;8.13;87.14
76866;BME280;66647;52.124;5.416;2024-03-23T16:58:32;100837.78;;;8.08;87.51
76866;BME280;66647;52.124;5.416;2024-03-23T17:01:12;100843.06;;;7.91;86.18
76866;BME280;66647;52.124;5.416;2024-03-23T17:03:48;100858.88;;;7.81;83.77
76866;BME280;66647;52.124;5.416;2024-03-23T17:06:19;100869.00;;;7.66;83.52